sensor_id;sensor_type;location;lat;lon;timestamp;P1;durP1;ratioP1;P2;durP2;ratioP2
11588;SDS011;5850;51.360;12.362;2023-06-26T00:00:20;6.63;;;6.00;;
11588;SDS011;5850;51.360;12.362;2023-06-26T00:02:48;6.33;;;5.47;;
11588;SDS011;5850;51.360;12.362;2023-06-26T00:05:16;5.90;;;5.30;;
11588;SDS011;5850;51.360;12.362;2023-06-26T00:07:45;7.53;;;5.60;;
11588;SDS011;5850;51.360;12.362;2023-06-26T00:10:13;6.40;;;5.80;;
11588;SDS011;5850;51.360;12.362;2023-06-26T00:12:41;6.33;;;5.73;;
11588;SDS011;5850;51.360;12.362;2023-06-26T00:15:09;7.07;;;5.70;;
11588;SDS011;5850;51.360;12.362;2023-06-26T00:17:38;7.30;;;5.50;;
11588;SDS011;5850;51.360;12.362;2023-06-26T00:20:10;6.57;;;5.43;;
11588;SDS011;5850;51.360;12.362;2023-06-26T00:22:38;6.07;;;5.47;;
11588;SDS011;5850;51.360;12.362;2023-06-26T00:25:07;8.63;;;5.30;;
11588;SDS011;5850;51.360;12.362;2023-06-26T00:27:39;6.60;;;6.00;;
11588;SDS011;5850;51.360;12.362;2023-06-26T00:30:07;6.33;;;5.73;;
11588;SDS011;5850;51.360;12.362;2023-06-26T00:32:36;6.50;;;5.60;;
11588;SDS011;5850;51.360;12.362;2023-06-26T00:35:04;6.70;;;5.63;;
11588;SDS011;5850;51.360;12.362;2023-06-26T00:37:33;6.30;;;5.70;;
11588;SDS011;5850;51.360;12.362;2023-06-26T00:40:01;6.13;;;5.53;;
11588;SDS011;5850;51.360;12.362;2023-06-26T00:42:31;6.10;;;5.10;;
11588;SDS011;5850;51.360;12.362;2023-06-26T00:44:59;7.43;;;5.50;;
11588;SDS011;5850;51.360;12.362;2023-06-26T00:47:28;5.97;;;5.10;;
11588;SDS011;5850;51.360;12.362;2023-06-26T00:49:56;6.70;;;5.47;;
11588;SDS011;5850;51.360;12.362;2023-06-26T00:52:24;6.33;;;5.60;;
11588;SDS011;5850;51.360;12.362;2023-06-26T00:54:53;6.20;;;5.60;;
11588;SDS011;5850;51.360;12.362;2023-06-26T00:57:21;6.80;;;5.50;;
11588;SDS011;5850;51.360;12.362;2023-06-26T00:59:54;7.43;;;5.57;;
11588;SDS011;5850;51.360;12.362;2023-06-26T01:02:22;6.47;;;5.53;;
11588;SDS011;5850;51.360;12.362;2023-06-26T01:04:51;6.43;;;5.73;;
11588;SDS011;5850;51.360;12.362;2023-06-26T01:07:20;6.40;;;5.70;;
11588;SDS011;5850;51.360;12.362;2023-06-26T01:09:52;7.60;;;5.20;;
11588;SDS011;5850;51.360;12.362;2023-06-26T01:12:20;6.10;;;5.50;;
11588;SDS011;5850;51.360;12.362;2023-06-26T01:14:48;6.13;;;5.53;;
11588;SDS011;5850;51.360;12.362;2023-06-26T01:17:16;6.10;;;5.50;;
11588;SDS011;5850;51.360;12.362;2023-06-26T01:19:45;7.00;;;5.23;;
11588;SDS011;5850;51.360;12.362;2023-06-26T01:22:27;6.10;;;5.50;;
11588;SDS011;5850;51.360;12.362;2023-06-26T01:25:25;5.80;;;5.23;;
11588;SDS011;5850;51.360;12.362;2023-06-26T01:28:09;6.43;;;5.60;;
11588;SDS011;5850;51.360;12.362;2023-06-26T01:30:40;5.80;;;5.30;;
11588;SDS011;5850;51.360;12.362;2023-06-26T01:33:10;5.87;;;5.13;;
11588;SDS011;5850;51.360;12.362;2023-06-26T01:35:40;6.13;;;5.50;;
11588;SDS011;5850;51.360;12.362;2023-06-26T01:38:12;5.83;;;5.07;;
11588;SDS011;5850;51.360;12.362;2023-06-26T01:40:44;6.13;;;5.53;;
11588;SDS011;5850;51.360;12.362;2023-06-26T01:43:18;5.77;;;4.90;;
11588;SDS011;5850;51.360;12.362;2023-06-26T01:46:27;6.00;;;5.33;;
11588;SDS011;5850;51.360;12.362;2023-06-26T01:52:39;5.60;;;5.10;;
11588;SDS011;5850;51.360;12.362;2023-06-26T01:55:23;6.27;;;5.57;;
11588;SDS011;5850;51.360;12.362;2023-06-26T01:58:02;7.67;;;5.30;;
11588;SDS011;5850;51.360;12.362;2023-06-26T02:00:30;6.20;;;5.37;;
11588;SDS011;5850;51.360;12.362;2023-06-26T02:02:59;6.23;;;5.60;;
11588;SDS011;5850;51.360;12.362;2023-06-26T02:05:28;6.13;;;5.37;;
11588;SDS011;5850;51.360;12.362;2023-06-26T02:07:57;6.60;;;5.37;;
11588;SDS011;5850;51.360;12.362;2023-06-26T02:10:27;6.73;;;6.13;;
11588;SDS011;5850;51.360;12.362;2023-06-26T02:12:56;7.27;;;5.57;;
11588;SDS011;5850;51.360;12.362;2023-06-26T02:15:27;6.10;;;5.60;;
11588;SDS011;5850;51.360;12.362;2023-06-26T02:17:55;6.73;;;6.10;;
11588;SDS011;5850;51.360;12.362;2023-06-26T02:20:23;6.87;;;6.17;;
11588;SDS011;5850;51.360;12.362;2023-06-26T02:22:52;5.80;;;5.30;;
11588;SDS011;5850;51.360;12.362;2023-06-26T02:25:21;6.57;;;5.87;;
11588;SDS011;5850;51.360;12.362;2023-06-26T02:27:49;6.50;;;5.80;;
11588;SDS011;5850;51.360;12.362;2023-06-26T02:30:17;6.03;;;5.43;;
11588;SDS011;5850;51.360;12.362;2023-06-26T02:32:45;6.70;;;5.70;;
11588;SDS011;5850;51.360;12.362;2023-06-26T02:35:13;6.17;;;5.57;;
11588;SDS011;5850;51.360;12.362;2023-06-26T02:37:42;6.00;;;5.40;;
11588;SDS011;5850;51.360;12.362;2023-06-26T02:40:11;6.93;;;5.93;;
11588;SDS011;5850;51.360;12.362;2023-06-26T02:42:39;6.53;;;5.30;;
11588;SDS011;5850;51.360;12.362;2023-06-26T02:45:07;6.43;;;5.63;;
11588;SDS011;5850;51.360;12.362;2023-06-26T02:47:36;6.93;;;5.47;;
11588;SDS011;5850;51.360;12.362;2023-06-26T02:50:06;8.77;;;6.00;;
11588;SDS011;5850;51.360;12.362;2023-06-26T02:52:34;6.43;;;5.83;;
11588;SDS011;5850;51.360;12.362;2023-06-26T02:55:03;7.00;;;6.20;;
11588;SDS011;5850;51.360;12.362;2023-06-26T02:57:32;7.50;;;6.20;;
11588;SDS011;5850;51.360;12.362;2023-06-26T03:00:00;6.47;;;5.70;;
11588;SDS011;5850;51.360;12.362;2023-06-26T03:02:29;7.40;;;6.17;;
11588;SDS011;5850;51.360;12.362;2023-06-26T03:04:58;7.50;;;6.03;;
11588;SDS011;5850;51.360;12.362;2023-06-26T03:07:26;8.07;;;5.77;;
11588;SDS011;5850;51.360;12.362;2023-06-26T03:09:54;7.57;;;6.20;;
11588;SDS011;5850;51.360;12.362;2023-06-26T03:12:23;6.17;;;5.57;;
11588;SDS011;5850;51.360;12.362;2023-06-26T03:14:52;8.30;;;5.97;;
11588;SDS011;5850;51.360;12.362;2023-06-26T03:17:20;7.30;;;5.63;;
11588;SDS011;5850;51.360;12.362;2023-06-26T03:19:49;6.60;;;6.00;;
11588;SDS011;5850;51.360;12.362;2023-06-26T03:22:17;7.33;;;6.63;;
11588;SDS011;5850;51.360;12.362;2023-06-26T03:24:45;6.70;;;6.10;;
11588;SDS011;5850;51.360;12.362;2023-06-26T03:27:14;7.30;;;5.90;;
11588;SDS011;5850;51.360;12.362;2023-06-26T03:29:44;7.63;;;6.30;;
11588;SDS011;5850;51.360;12.362;2023-06-26T03:32:13;6.77;;;6.13;;
11588;SDS011;5850;51.360;12.362;2023-06-26T03:34:42;6.17;;;5.57;;
11588;SDS011;5850;51.360;12.362;2023-06-26T03:37:10;6.10;;;5.50;;
11588;SDS011;5850;51.360;12.362;2023-06-26T03:39:38;7.37;;;5.77;;
11588;SDS011;5850;51.360;12.362;2023-06-26T03:42:07;6.63;;;5.93;;
11588;SDS011;5850;51.360;12.362;2023-06-26T03:44:35;6.40;;;5.53;;
11588;SDS011;5850;51.360;12.362;2023-06-26T03:47:03;7.60;;;5.90;;
11588;SDS011;5850;51.360;12.362;2023-06-26T03:49:31;7.03;;;6.23;;
11588;SDS011;5850;51.360;12.362;2023-06-26T03:51:59;6.07;;;5.47;;
11588;SDS011;5850;51.360;12.362;2023-06-26T03:54:28;6.57;;;5.87;;
11588;SDS011;5850;51.360;12.362;2023-06-26T03:56:56;7.23;;;6.50;;
11588;SDS011;5850;51.360;12.362;2023-06-26T03:59:24;6.40;;;5.80;;
11588;SDS011;5850;51.360;12.362;2023-06-26T04:01:52;6.70;;;5.67;;
11588;SDS011;5850;51.360;12.362;2023-06-26T04:04:21;8.37;;;6.30;;
11588;SDS011;5850;51.360;12.362;2023-06-26T04:06:49;6.57;;;5.90;;
11588;SDS011;5850;51.360;12.362;2023-06-26T04:09:17;6.37;;;5.77;;
11588;SDS011;5850;51.360;12.362;2023-06-26T04:11:46;6.80;;;6.10;;
11588;SDS011;5850;51.360;12.362;2023-06-26T04:14:14;7.07;;;6.00;;
11588;SDS011;5850;51.360;12.362;2023-06-26T04:16:43;6.20;;;5.53;;
11588;SDS011;5850;51.360;12.362;2023-06-26T04:19:13;6.73;;;5.60;;
11588;SDS011;5850;51.360;12.362;2023-06-26T04:21:45;6.30;;;5.70;;
11588;SDS011;5850;51.360;12.362;2023-06-26T04:24:13;6.70;;;6.10;;
11588;SDS011;5850;51.360;12.362;2023-06-26T04:26:41;6.57;;;5.67;;
11588;SDS011;5850;51.360;12.362;2023-06-26T04:29:11;7.20;;;6.10;;
11588;SDS011;5850;51.360;12.362;2023-06-26T04:31:39;9.97;;;6.27;;
11588;SDS011;5850;51.360;12.362;2023-06-26T04:34:13;6.60;;;5.90;;
11588;SDS011;5850;51.360;12.362;2023-06-26T04:36:41;8.70;;;6.10;;
11588;SDS011;5850;51.360;12.362;2023-06-26T04:39:14;6.30;;;5.70;;
11588;SDS011;5850;51.360;12.362;2023-06-26T04:41:42;6.30;;;5.70;;
11588;SDS011;5850;51.360;12.362;2023-06-26T04:44:11;6.97;;;5.77;;
11588;SDS011;5850;51.360;12.362;2023-06-26T04:46:40;9.67;;;5.57;;
11588;SDS011;5850;51.360;12.362;2023-06-26T04:49:08;6.07;;;5.47;;
11588;SDS011;5850;51.360;12.362;2023-06-26T04:51:36;6.00;;;5.40;;
11588;SDS011;5850;51.360;12.362;2023-06-26T04:54:07;6.60;;;5.70;;
11588;SDS011;5850;51.360;12.362;2023-06-26T04:56:36;7.90;;;5.67;;
11588;SDS011;5850;51.360;12.362;2023-06-26T04:59:06;6.70;;;5.17;;
11588;SDS011;5850;51.360;12.362;2023-06-26T05:01:39;6.87;;;5.20;;
11588;SDS011;5850;51.360;12.362;2023-06-26T05:04:08;8.17;;;5.90;;
11588;SDS011;5850;51.360;12.362;2023-06-26T05:06:36;6.87;;;5.50;;
11588;SDS011;5850;51.360;12.362;2023-06-26T05:09:04;6.63;;;5.27;;
11588;SDS011;5850;51.360;12.362;2023-06-26T05:11:33;5.57;;;4.97;;
11588;SDS011;5850;51.360;12.362;2023-06-26T05:14:01;8.07;;;4.77;;
11588;SDS011;5850;51.360;12.362;2023-06-26T05:16:29;6.90;;;5.63;;
11588;SDS011;5850;51.360;12.362;2023-06-26T05:18:57;6.43;;;5.70;;
11588;SDS011;5850;51.360;12.362;2023-06-26T05:21:26;6.53;;;5.40;;
11588;SDS011;5850;51.360;12.362;2023-06-26T05:23:56;5.80;;;5.20;;
11588;SDS011;5850;51.360;12.362;2023-06-26T05:26:25;6.03;;;5.43;;
11588;SDS011;5850;51.360;12.362;2023-06-26T05:28:53;6.03;;;5.47;;
11588;SDS011;5850;51.360;12.362;2023-06-26T05:31:21;7.53;;;5.60;;
11588;SDS011;5850;51.360;12.362;2023-06-26T05:33:50;7.90;;;5.63;;
11588;SDS011;5850;51.360;12.362;2023-06-26T05:36:22;6.60;;;5.40;;
11588;SDS011;5850;51.360;12.362;2023-06-26T05:38:52;5.80;;;5.23;;
11588;SDS011;5850;51.360;12.362;2023-06-26T05:41:22;5.20;;;4.70;;
11588;SDS011;5850;51.360;12.362;2023-06-26T05:43:50;5.97;;;5.10;;
11588;SDS011;5850;51.360;12.362;2023-06-26T05:46:20;9.27;;;5.53;;
11588;SDS011;5850;51.360;12.362;2023-06-26T05:48:48;6.43;;;5.60;;
11588;SDS011;5850;51.360;12.362;2023-06-26T05:51:17;5.60;;;5.10;;
11588;SDS011;5850;51.360;12.362;2023-06-26T05:53:45;8.07;;;5.93;;
11588;SDS011;5850;51.360;12.362;2023-06-26T05:56:14;5.90;;;5.30;;
11588;SDS011;5850;51.360;12.362;2023-06-26T05:58:42;6.23;;;5.60;;
11588;SDS011;5850;51.360;12.362;2023-06-26T06:01:11;6.17;;;5.60;;
11588;SDS011;5850;51.360;12.362;2023-06-26T06:03:39;6.17;;;5.57;;
11588;SDS011;5850;51.360;12.362;2023-06-26T06:06:07;8.67;;;6.33;;
11588;SDS011;5850;51.360;12.362;2023-06-26T06:08:36;6.03;;;5.43;;
11588;SDS011;5850;51.360;12.362;2023-06-26T06:11:04;7.37;;;5.60;;
11588;SDS011;5850;51.360;12.362;2023-06-26T06:13:32;5.73;;;5.23;;
11588;SDS011;5850;51.360;12.362;2023-06-26T06:16:00;6.27;;;5.67;;
11588;SDS011;5850;51.360;12.362;2023-06-26T06:18:29;8.00;;;5.30;;
11588;SDS011;5850;51.360;12.362;2023-06-26T06:20:57;5.67;;;4.90;;
11588;SDS011;5850;51.360;12.362;2023-06-26T06:23:25;5.87;;;5.27;;
11588;SDS011;5850;51.360;12.362;2023-06-26T06:25:54;5.83;;;5.33;;
11588;SDS011;5850;51.360;12.362;2023-06-26T06:28:22;6.07;;;4.87;;
11588;SDS011;5850;51.360;12.362;2023-06-26T06:30:50;5.77;;;5.23;;
11588;SDS011;5850;51.360;12.362;2023-06-26T06:33:19;6.30;;;5.50;;
11588;SDS011;5850;51.360;12.362;2023-06-26T06:35:47;6.07;;;5.47;;
11588;SDS011;5850;51.360;12.362;2023-06-26T06:38:15;5.77;;;5.27;;
11588;SDS011;5850;51.360;12.362;2023-06-26T06:40:43;5.40;;;4.90;;
11588;SDS011;5850;51.360;12.362;2023-06-26T06:43:11;6.10;;;5.07;;
11588;SDS011;5850;51.360;12.362;2023-06-26T06:45:40;5.10;;;4.60;;
11588;SDS011;5850;51.360;12.362;2023-06-26T06:48:08;5.57;;;5.00;;
11588;SDS011;5850;51.360;12.362;2023-06-26T06:50:35;5.53;;;5.03;;
11588;SDS011;5850;51.360;12.362;2023-06-26T06:53:04;5.57;;;5.07;;
11588;SDS011;5850;51.360;12.362;2023-06-26T06:55:32;7.28;;;5.47;;
11588;SDS011;5850;51.360;12.362;2023-06-26T06:58:00;6.80;;;5.55;;
11588;SDS011;5850;51.360;12.362;2023-06-26T07:00:31;5.95;;;4.90;;
11588;SDS011;5850;51.360;12.362;2023-06-26T07:02:59;5.68;;;5.18;;
11588;SDS011;5850;51.360;12.362;2023-06-26T07:05:27;9.23;;;6.22;;
11588;SDS011;5850;51.360;12.362;2023-06-26T07:07:56;6.22;;;5.40;;
11588;SDS011;5850;51.360;12.362;2023-06-26T07:10:27;6.13;;;5.53;;
11588;SDS011;5850;51.360;12.362;2023-06-26T07:12:55;6.43;;;5.80;;
11588;SDS011;5850;51.360;12.362;2023-06-26T07:15:24;5.78;;;5.18;;
11588;SDS011;5850;51.360;12.362;2023-06-26T07:17:53;7.72;;;5.35;;
11588;SDS011;5850;51.360;12.362;2023-06-26T07:20:22;6.93;;;5.78;;
11588;SDS011;5850;51.360;12.362;2023-06-26T07:22:50;6.10;;;5.50;;
11588;SDS011;5850;51.360;12.362;2023-06-26T07:25:19;6.30;;;5.70;;
11588;SDS011;5850;51.360;12.362;2023-06-26T07:27:47;5.90;;;5.30;;
11588;SDS011;5850;51.360;12.362;2023-06-26T07:30:16;6.22;;;5.28;;
11588;SDS011;5850;51.360;12.362;2023-06-26T07:32:44;6.45;;;5.78;;
11588;SDS011;5850;51.360;12.362;2023-06-26T07:35:13;7.85;;;5.00;;
11588;SDS011;5850;51.360;12.362;2023-06-26T07:37:42;6.03;;;4.95;;
11588;SDS011;5850;51.360;12.362;2023-06-26T07:40:10;9.40;;;5.60;;
11588;SDS011;5850;51.360;12.362;2023-06-26T07:42:39;6.72;;;6.00;;
11588;SDS011;5850;51.360;12.362;2023-06-26T07:45:07;7.13;;;5.30;;
11588;SDS011;5850;51.360;12.362;2023-06-26T07:47:38;5.72;;;4.90;;
11588;SDS011;5850;51.360;12.362;2023-06-26T07:50:07;5.93;;;4.90;;
11588;SDS011;5850;51.360;12.362;2023-06-26T07:52:36;5.93;;;5.32;;
11588;SDS011;5850;51.360;12.362;2023-06-26T07:55:04;5.35;;;4.85;;
11588;SDS011;5850;51.360;12.362;2023-06-26T07:57:32;6.20;;;5.60;;
11588;SDS011;5850;51.360;12.362;2023-06-26T08:00:00;6.05;;;5.43;;
11588;SDS011;5850;51.360;12.362;2023-06-26T08:02:30;7.05;;;5.85;;
11588;SDS011;5850;51.360;12.362;2023-06-26T08:04:58;6.63;;;5.55;;
11588;SDS011;5850;51.360;12.362;2023-06-26T08:07:27;6.30;;;4.90;;
11588;SDS011;5850;51.360;12.362;2023-06-26T08:09:54;5.75;;;5.15;;
11588;SDS011;5850;51.360;12.362;2023-06-26T08:12:23;5.95;;;5.45;;
11588;SDS011;5850;51.360;12.362;2023-06-26T08:14:51;5.82;;;5.32;;
11588;SDS011;5850;51.360;12.362;2023-06-26T08:17:19;5.63;;;5.10;;
11588;SDS011;5850;51.360;12.362;2023-06-26T08:19:48;6.00;;;5.18;;
11588;SDS011;5850;51.360;12.362;2023-06-26T08:22:16;7.35;;;6.60;;
11588;SDS011;5850;51.360;12.362;2023-06-26T08:24:44;6.75;;;6.15;;
11588;SDS011;5850;51.360;12.362;2023-06-26T08:27:13;5.70;;;5.20;;
11588;SDS011;5850;51.360;12.362;2023-06-26T08:29:41;8.63;;;5.75;;
11588;SDS011;5850;51.360;12.362;2023-06-26T08:32:09;6.57;;;5.70;;
11588;SDS011;5850;51.360;12.362;2023-06-26T08:34:37;6.07;;;4.63;;
11588;SDS011;5850;51.360;12.362;2023-06-26T08:37:06;5.53;;;5.03;;
11588;SDS011;5850;51.360;12.362;2023-06-26T08:39:35;6.47;;;5.10;;
11588;SDS011;5850;51.360;12.362;2023-06-26T08:42:03;5.90;;;5.30;;
11588;SDS011;5850;51.360;12.362;2023-06-26T08:44:32;7.40;;;5.03;;
11588;SDS011;5850;51.360;12.362;2023-06-26T08:47:01;6.20;;;4.82;;
11588;SDS011;5850;51.360;12.362;2023-06-26T08:52:43;5.80;;;5.20;;
11588;SDS011;5850;51.360;12.362;2023-06-26T08:55:18;9.05;;;5.25;;
11588;SDS011;5850;51.360;12.362;2023-06-26T08:57:50;5.93;;;5.40;;
11588;SDS011;5850;51.360;12.362;2023-06-26T09:00:19;5.57;;;5.07;;
11588;SDS011;5850;51.360;12.362;2023-06-26T09:02:48;6.35;;;5.63;;
11588;SDS011;5850;51.360;12.362;2023-06-26T09:05:16;8.52;;;7.55;;
11588;SDS011;5850;51.360;12.362;2023-06-26T09:07:45;6.25;;;5.68;;
11588;SDS011;5850;51.360;12.362;2023-06-26T09:10:13;5.68;;;5.18;;
11588;SDS011;5850;51.360;12.362;2023-06-26T09:12:42;5.35;;;4.85;;
11588;SDS011;5850;51.360;12.362;2023-06-26T09:15:14;6.70;;;5.15;;
11588;SDS011;5850;51.360;12.362;2023-06-26T09:17:43;5.63;;;5.13;;
11588;SDS011;5850;51.360;12.362;2023-06-26T09:20:11;5.45;;;4.95;;
11588;SDS011;5850;51.360;12.362;2023-06-26T09:22:41;6.50;;;4.88;;
11588;SDS011;5850;51.360;12.362;2023-06-26T09:25:10;5.90;;;5.32;;
11588;SDS011;5850;51.360;12.362;2023-06-26T09:27:39;5.82;;;5.13;;
11588;SDS011;5850;51.360;12.362;2023-06-26T09:30:07;5.20;;;4.78;;
11588;SDS011;5850;51.360;12.362;2023-06-26T09:32:37;5.82;;;5.00;;
11588;SDS011;5850;51.360;12.362;2023-06-26T09:35:05;6.68;;;4.90;;
11588;SDS011;5850;51.360;12.362;2023-06-26T09:37:34;5.22;;;4.78;;
11588;SDS011;5850;51.360;12.362;2023-06-26T09:40:03;5.35;;;4.85;;
11588;SDS011;5850;51.360;12.362;2023-06-26T09:42:32;7.32;;;5.72;;
11588;SDS011;5850;51.360;12.362;2023-06-26T09:45:00;7.63;;;5.53;;
11588;SDS011;5850;51.360;12.362;2023-06-26T09:47:30;6.47;;;5.90;;
11588;SDS011;5850;51.360;12.362;2023-06-26T09:49:58;5.70;;;5.20;;
11588;SDS011;5850;51.360;12.362;2023-06-26T09:52:27;5.53;;;5.03;;
11588;SDS011;5850;51.360;12.362;2023-06-26T09:55:08;5.90;;;4.40;;
11588;SDS011;5850;51.360;12.362;2023-06-26T09:57:37;6.57;;;5.97;;
11588;SDS011;5850;51.360;12.362;2023-06-26T10:00:06;5.63;;;5.13;;
11588;SDS011;5850;51.360;12.362;2023-06-26T10:02:35;6.00;;;5.00;;
11588;SDS011;5850;51.360;12.362;2023-06-26T10:05:04;4.43;;;4.05;;
11588;SDS011;5850;51.360;12.362;2023-06-26T10:07:32;5.40;;;4.90;;
11588;SDS011;5850;51.360;12.362;2023-06-26T10:10:02;5.93;;;5.43;;
11588;SDS011;5850;51.360;12.362;2023-06-26T10:12:31;6.00;;;5.43;;
11588;SDS011;5850;51.360;12.362;2023-06-26T10:14:59;5.18;;;4.68;;
11588;SDS011;5850;51.360;12.362;2023-06-26T10:17:32;4.97;;;4.57;;
11588;SDS011;5850;51.360;12.362;2023-06-26T10:20:02;6.00;;;5.18;;
11588;SDS011;5850;51.360;12.362;2023-06-26T10:22:33;5.10;;;4.70;;
11588;SDS011;5850;51.360;12.362;2023-06-26T10:25:07;6.28;;;5.22;;
11588;SDS011;5850;51.360;12.362;2023-06-26T10:27:42;5.68;;;5.18;;
11588;SDS011;5850;51.360;12.362;2023-06-26T10:30:16;5.07;;;4.63;;
11588;SDS011;5850;51.360;12.362;2023-06-26T10:32:48;5.13;;;4.63;;
11588;SDS011;5850;51.360;12.362;2023-06-26T10:35:17;5.47;;;4.50;;
11588;SDS011;5850;51.360;12.362;2023-06-26T10:37:46;7.72;;;4.90;;
11588;SDS011;5850;51.360;12.362;2023-06-26T10:40:22;5.65;;;5.18;;
11588;SDS011;5850;51.360;12.362;2023-06-26T10:45:43;5.60;;;5.10;;
11588;SDS011;5850;51.360;12.362;2023-06-26T10:48:18;7.32;;;4.72;;
11588;SDS011;5850;51.360;12.362;2023-06-26T10:50:49;5.68;;;5.18;;
11588;SDS011;5850;51.360;12.362;2023-06-26T10:55:54;5.28;;;4.78;;
11588;SDS011;5850;51.360;12.362;2023-06-26T11:03:40;5.75;;;5.25;;
11588;SDS011;5850;51.360;12.362;2023-06-26T11:06:11;5.30;;;4.80;;
11588;SDS011;5850;51.360;12.362;2023-06-26T11:08:50;5.43;;;4.93;;
11588;SDS011;5850;51.360;12.362;2023-06-26T11:14:19;4.80;;;4.40;;
11588;SDS011;5850;51.360;12.362;2023-06-26T11:16:48;5.47;;;4.95;;
11588;SDS011;5850;51.360;12.362;2023-06-26T11:19:17;5.68;;;5.18;;
11588;SDS011;5850;51.360;12.362;2023-06-26T11:21:46;5.75;;;5.25;;
11588;SDS011;5850;51.360;12.362;2023-06-26T11:24:15;5.57;;;5.10;;
11588;SDS011;5850;51.360;12.362;2023-06-26T11:26:44;4.93;;;4.50;;
11588;SDS011;5850;51.360;12.362;2023-06-26T11:29:12;6.18;;;5.30;;
11588;SDS011;5850;51.360;12.362;2023-06-26T11:31:41;5.60;;;5.10;;
11588;SDS011;5850;51.360;12.362;2023-06-26T11:34:10;7.57;;;4.70;;
11588;SDS011;5850;51.360;12.362;2023-06-26T11:36:41;5.57;;;5.07;;
11588;SDS011;5850;51.360;12.362;2023-06-26T11:39:12;5.15;;;4.75;;
11588;SDS011;5850;51.360;12.362;2023-06-26T11:41:40;5.43;;;4.93;;
11588;SDS011;5850;51.360;12.362;2023-06-26T11:44:09;5.40;;;4.93;;
11588;SDS011;5850;51.360;12.362;2023-06-26T11:46:37;5.15;;;4.65;;
11588;SDS011;5850;51.360;12.362;2023-06-26T11:49:06;5.00;;;4.60;;
11588;SDS011;5850;51.360;12.362;2023-06-26T11:51:35;5.78;;;5.28;;
11588;SDS011;5850;51.360;12.362;2023-06-26T11:54:04;6.20;;;4.85;;
11588;SDS011;5850;51.360;12.362;2023-06-26T11:56:32;5.25;;;4.75;;
11588;SDS011;5850;51.360;12.362;2023-06-26T11:59:01;5.45;;;4.95;;
11588;SDS011;5850;51.360;12.362;2023-06-26T12:01:41;5.50;;;5.00;;
11588;SDS011;5850;51.360;12.362;2023-06-26T12:04:11;5.38;;;4.53;;
11588;SDS011;5850;51.360;12.362;2023-06-26T12:06:43;6.90;;;5.20;;
11588;SDS011;5850;51.360;12.362;2023-06-26T12:09:15;4.47;;;4.07;;
11588;SDS011;5850;51.360;12.362;2023-06-26T12:11:46;4.97;;;4.57;;
11588;SDS011;5850;51.360;12.362;2023-06-26T12:14:16;5.13;;;4.72;;
11588;SDS011;5850;51.360;12.362;2023-06-26T12:16:45;4.80;;;4.40;;
11588;SDS011;5850;51.360;12.362;2023-06-26T12:19:13;5.05;;;4.55;;
11588;SDS011;5850;51.360;12.362;2023-06-26T12:21:46;4.85;;;4.45;;
11588;SDS011;5850;51.360;12.362;2023-06-26T12:24:21;5.65;;;5.15;;
11588;SDS011;5850;51.360;12.362;2023-06-26T12:26:53;5.97;;;5.45;;
11588;SDS011;5850;51.360;12.362;2023-06-26T12:29:32;6.63;;;5.00;;
11588;SDS011;5850;51.360;12.362;2023-06-26T12:32:01;5.35;;;4.82;;
11588;SDS011;5850;51.360;12.362;2023-06-26T12:34:33;5.68;;;4.97;;
11588;SDS011;5850;51.360;12.362;2023-06-26T12:37:02;4.95;;;4.55;;
11588;SDS011;5850;51.360;12.362;2023-06-26T12:39:49;4.93;;;4.43;;
11588;SDS011;5850;51.360;12.362;2023-06-26T12:42:23;5.97;;;5.00;;
11588;SDS011;5850;51.360;12.362;2023-06-26T12:44:52;7.32;;;5.45;;
11588;SDS011;5850;51.360;12.362;2023-06-26T12:47:24;5.38;;;4.88;;
11588;SDS011;5850;51.360;12.362;2023-06-26T12:49:57;5.53;;;5.07;;
11588;SDS011;5850;51.360;12.362;2023-06-26T12:52:26;7.10;;;5.68;;
11588;SDS011;5850;51.360;12.362;2023-06-26T12:54:54;5.57;;;4.97;;
11588;SDS011;5850;51.360;12.362;2023-06-26T12:57:23;5.40;;;4.90;;
11588;SDS011;5850;51.360;12.362;2023-06-26T12:59:52;5.55;;;5.03;;
11588;SDS011;5850;51.360;12.362;2023-06-26T13:02:20;6.97;;;5.30;;
11588;SDS011;5850;51.360;12.362;2023-06-26T13:04:49;5.60;;;4.50;;
11588;SDS011;5850;51.360;12.362;2023-06-26T13:07:17;5.35;;;4.85;;
11588;SDS011;5850;51.360;12.362;2023-06-26T13:09:45;6.10;;;5.50;;
11588;SDS011;5850;51.360;12.362;2023-06-26T13:12:14;6.90;;;5.05;;
11588;SDS011;5850;51.360;12.362;2023-06-26T13:14:42;7.00;;;4.78;;
11588;SDS011;5850;51.360;12.362;2023-06-26T13:17:11;5.40;;;4.90;;
11588;SDS011;5850;51.360;12.362;2023-06-26T13:19:39;5.43;;;4.93;;
11588;SDS011;5850;51.360;12.362;2023-06-26T13:22:08;6.10;;;5.57;;
11588;SDS011;5850;51.360;12.362;2023-06-26T13:24:36;5.88;;;5.38;;
11588;SDS011;5850;51.360;12.362;2023-06-26T13:27:05;6.85;;;4.60;;
11588;SDS011;5850;51.360;12.362;2023-06-26T13:29:33;5.70;;;5.20;;
11588;SDS011;5850;51.360;12.362;2023-06-26T13:32:02;4.40;;;4.00;;
11588;SDS011;5850;51.360;12.362;2023-06-26T13:34:30;5.68;;;5.10;;
11588;SDS011;5850;51.360;12.362;2023-06-26T13:36:58;5.32;;;4.93;;
11588;SDS011;5850;51.360;12.362;2023-06-26T13:39:27;5.00;;;4.50;;
11588;SDS011;5850;51.360;12.362;2023-06-26T13:41:55;5.00;;;4.53;;
11588;SDS011;5850;51.360;12.362;2023-06-26T13:44:24;4.00;;;3.63;;
11588;SDS011;5850;51.360;12.362;2023-06-26T13:47:03;4.65;;;4.25;;
11588;SDS011;5850;51.360;12.362;2023-06-26T13:49:35;5.57;;;5.07;;
11588;SDS011;5850;51.360;12.362;2023-06-26T13:52:03;6.97;;;6.28;;
11588;SDS011;5850;51.360;12.362;2023-06-26T13:54:34;5.82;;;5.25;;
11588;SDS011;5850;51.360;12.362;2023-06-26T13:57:03;5.13;;;4.63;;
11588;SDS011;5850;51.360;12.362;2023-06-26T13:59:31;5.63;;;5.13;;
11588;SDS011;5850;51.360;12.362;2023-06-26T14:02:00;5.50;;;4.95;;
11588;SDS011;5850;51.360;12.362;2023-06-26T14:04:29;4.38;;;3.97;;
11588;SDS011;5850;51.360;12.362;2023-06-26T14:06:57;8.13;;;6.28;;
11588;SDS011;5850;51.360;12.362;2023-06-26T14:09:25;19.70;;;8.48;;
11588;SDS011;5850;51.360;12.362;2023-06-26T14:11:53;17.70;;;8.68;;
11588;SDS011;5850;51.360;12.362;2023-06-26T14:14:22;23.85;;;9.23;;
11588;SDS011;5850;51.360;12.362;2023-06-26T14:16:50;15.03;;;10.03;;
11588;SDS011;5850;51.360;12.362;2023-06-26T14:19:18;10.97;;;9.20;;
11588;SDS011;5850;51.360;12.362;2023-06-26T14:21:46;12.20;;;10.10;;
11588;SDS011;5850;51.360;12.362;2023-06-26T14:24:15;14.97;;;11.27;;
11588;SDS011;5850;51.360;12.362;2023-06-26T14:26:43;16.63;;;11.80;;
11588;SDS011;5850;51.360;12.362;2023-06-26T14:29:11;13.13;;;11.53;;
11588;SDS011;5850;51.360;12.362;2023-06-26T14:31:43;15.37;;;12.30;;
11588;SDS011;5850;51.360;12.362;2023-06-26T14:34:15;18.40;;;12.53;;
11588;SDS011;5850;51.360;12.362;2023-06-26T14:36:44;20.47;;;13.67;;
11588;SDS011;5850;51.360;12.362;2023-06-26T14:39:12;18.27;;;12.17;;
11588;SDS011;5850;51.360;12.362;2023-06-26T14:41:41;15.87;;;11.70;;
11588;SDS011;5850;51.360;12.362;2023-06-26T14:44:10;13.20;;;11.90;;
11588;SDS011;5850;51.360;12.362;2023-06-26T14:46:39;15.93;;;13.03;;
11588;SDS011;5850;51.360;12.362;2023-06-26T14:49:07;20.07;;;13.20;;
11588;SDS011;5850;51.360;12.362;2023-06-26T14:51:35;14.00;;;12.20;;
11588;SDS011;5850;51.360;12.362;2023-06-26T14:54:05;14.53;;;11.90;;
11588;SDS011;5850;51.360;12.362;2023-06-26T14:56:34;12.80;;;11.40;;
11588;SDS011;5850;51.360;12.362;2023-06-26T14:59:03;14.03;;;10.37;;
11588;SDS011;5850;51.360;12.362;2023-06-26T15:01:34;10.90;;;9.77;;
11588;SDS011;5850;51.360;12.362;2023-06-26T15:04:02;13.43;;;9.80;;
11588;SDS011;5850;51.360;12.362;2023-06-26T15:06:30;11.50;;;10.37;;
11588;SDS011;5850;51.360;12.362;2023-06-26T15:08:59;11.87;;;10.67;;
11588;SDS011;5850;51.360;12.362;2023-06-26T15:11:28;13.67;;;9.83;;
11588;SDS011;5850;51.360;12.362;2023-06-26T15:13:57;10.47;;;8.77;;
11588;SDS011;5850;51.360;12.362;2023-06-26T15:16:25;12.30;;;9.33;;
11588;SDS011;5850;51.360;12.362;2023-06-26T15:18:54;11.33;;;9.13;;